createdAt,value
2022-08-22T00:02:03.993Z,5.50
2022-08-22T00:02:49.934Z,5.57
2022-08-22T00:02:56.460Z,5.60
2022-08-22T00:02:57.438Z,5.53
2022-08-22T00:04:36.422Z,5.50
2022-08-22T00:07:13.613Z,6.00
2022-08-22T00:09:49.389Z,5.37
2022-08-22T00:12:22.525Z,6.17
2022-08-22T00:14:59.814Z,5.50
2022-08-22T00:17:36.157Z,6.50
2022-08-22T00:20:10.283Z,5.90
2022-08-22T00:22:47.679Z,6.60
2022-08-22T00:25:33.481Z,5.93
2022-08-22T00:28:06.149Z,7.13
2022-08-22T00:30:43.674Z,7.10
2022-08-22T00:33:22.841Z,8.00
2022-08-22T00:36:00.947Z,6.50
2022-08-22T00:38:34.693Z,6.43
2022-08-22T00:41:08.501Z,6.63
2022-08-22T00:44:18.108Z,6.33
2022-08-22T00:47:14.612Z,7.50
2022-08-22T00:50:15.388Z,7.40
2022-08-22T00:53:03.986Z,6.83
2022-08-22T00:55:44.577Z,7.10
2022-08-22T00:58:45.352Z,7.50
2022-08-22T01:01:17.701Z,7.40
2022-08-22T01:04:03.597Z,8.27
2022-08-22T01:06:43.742Z,6.50
2022-08-22T01:09:25.376Z,7.10
2022-08-22T01:12:15.656Z,6.60
2022-08-22T01:14:50.305Z,6.20
2022-08-22T01:17:50.323Z,6.43
2022-08-22T01:20:51.609Z,7.30
2022-08-22T01:23:56.246Z,7.27
2022-08-22T01:27:00.372Z,7.10
2022-08-22T01:30:02.705Z,6.87
2022-08-22T01:33:18.129Z,7.20
2022-08-22T01:36:04.831Z,6.30
2022-08-22T01:38:53.322Z,6.53
2022-08-22T01:41:59.753Z,7.70
2022-08-22T01:44:47.150Z,6.40
2022-08-22T01:47:19.960Z,7.60
2022-08-22T01:49:53.496Z,8.03
2022-08-22T01:52:38.561Z,8.40
2022-08-22T01:55:11.272Z,6.90
2022-08-22T01:57:52.542Z,6.70
2022-08-22T02:00:34.913Z,7.47
2022-08-22T02:03:13.478Z,7.00
2022-08-22T02:05:50.905Z,7.03
2022-08-22T02:08:31.203Z,7.40
2022-08-22T02:11:05.928Z,7.40
2022-08-22T02:13:46.269Z,7.33
2022-08-22T02:16:20.909Z,7.83
2022-08-22T02:19:04.637Z,6.33
2022-08-22T02:21:43.937Z,8.00
2022-08-22T02:24:29.424Z,8.03
2022-08-22T02:27:13.984Z,7.60
2022-08-22T02:29:49.226Z,8.03
2022-08-22T02:32:23.477Z,6.70
2022-08-22T02:35:01.178Z,7.97
2022-08-22T02:37:38.060Z,7.20
2022-08-22T02:40:15.719Z,6.93
2022-08-22T02:42:49.769Z,7.30
2022-08-22T02:45:25.961Z,7.60
2022-08-22T02:48:02.123Z,6.83
2022-08-22T02:50:39.042Z,7.13
2022-08-22T02:53:14.516Z,8.27
2022-08-22T02:55:51.536Z,7.30
2022-08-22T02:58:29.054Z,7.17
2022-08-22T03:01:17.595Z,7.93
2022-08-22T03:03:48.331Z,9.17
2022-08-22T03:06:37.402Z,9.50
2022-08-22T03:09:22.992Z,9.00
2022-08-22T03:12:03.900Z,9.03
2022-08-22T03:14:39.919Z,9.47
2022-08-22T03:17:12.589Z,8.80
2022-08-22T03:19:52.677Z,8.97
2022-08-22T03:22:27.461Z,9.70
2022-08-22T03:25:03.847Z,10.30
2022-08-22T03:27:41.716Z,8.30
2022-08-22T03:30:16.764Z,9.30
2022-08-22T03:32:50.726Z,9.77
2022-08-22T03:35:29.737Z,8.87
2022-08-22T03:38:12.305Z,9.20
2022-08-22T03:40:53.990Z,9.40
2022-08-22T03:43:58.240Z,9.27
2022-08-22T03:46:52.869Z,8.27
2022-08-22T03:49:59.753Z,8.90
2022-08-22T03:53:18.775Z,9.17
2022-08-22T03:56:25.566Z,9.73
2022-08-22T03:59:28.133Z,9.10
2022-08-22T04:02:24.681Z,8.90
2022-08-22T04:05:33.749Z,9.40
2022-08-22T04:08:29.389Z,9.40
2022-08-22T04:11:21.349Z,10.43
2022-08-22T04:14:28.773Z,10.70
2022-08-22T04:17:15.265Z,10.30
2022-08-22T04:20:01.507Z,9.43
2022-08-22T04:22:58.289Z,11.23
2022-08-22T04:25:32.156Z,9.63
2022-08-22T04:28:06.985Z,8.83
2022-08-22T04:30:41.909Z,8.50
2022-08-22T04:33:17.452Z,9.60
2022-08-22T04:35:53.800Z,9.73
2022-08-22T04:38:28.629Z,9.90
2022-08-22T04:41:04.581Z,9.13
2022-08-22T04:43:37.173Z,10.43
2022-08-22T04:46:12.981Z,11.20
2022-08-22T04:48:45.569Z,10.57
2022-08-22T04:51:21.920Z,9.80
2022-08-22T04:54:27.039Z,10.23
2022-08-22T04:57:17.300Z,10.47
2022-08-22T04:59:45.698Z,10.17
2022-08-22T05:02:23.505Z,8.80
2022-08-22T05:04:59.064Z,8.17
2022-08-22T05:07:33.906Z,8.17
2022-08-22T05:10:12.243Z,7.37
2022-08-22T05:12:44.445Z,6.93
2022-08-22T05:15:19.046Z,6.60
2022-08-22T05:17:56.802Z,6.20
2022-08-22T05:20:28.788Z,6.27
2022-08-22T05:23:00.379Z,5.87
2022-08-22T05:25:31.038Z,5.27
2022-08-22T05:28:08.446Z,6.00
2022-08-22T05:30:36.916Z,5.70
2022-08-22T05:33:14.658Z,6.23
2022-08-22T05:35:50.780Z,4.70
2022-08-22T05:38:24.239Z,4.50
2022-08-22T05:40:58.607Z,4.63
2022-08-22T05:43:27.419Z,4.37
2022-08-22T05:45:58.424Z,6.83
2022-08-22T05:48:36.530Z,5.30
2022-08-22T05:51:14.130Z,8.33
2022-08-22T05:53:47.184Z,7.77
2022-08-22T05:56:19.732Z,7.33
2022-08-22T05:58:52.846Z,5.43
2022-08-22T06:01:27.529Z,5.23
2022-08-22T06:04:02.417Z,5.80
2022-08-22T06:06:33.593Z,5.33
2022-08-22T06:09:06.876Z,4.80
2022-08-22T06:11:40.920Z,5.70
2022-08-22T06:14:24.879Z,5.73
2022-08-22T06:16:59.836Z,6.53
2022-08-22T06:19:29.414Z,6.77
2022-08-22T06:21:58.288Z,5.50
2022-08-22T06:24:28.618Z,6.90
2022-08-22T06:27:02.596Z,7.43
2022-08-22T06:29:38.552Z,7.30
2022-08-22T06:32:13.487Z,7.00
2022-08-22T06:34:46.266Z,7.50
2022-08-22T06:37:24.577Z,6.37
2022-08-22T06:39:54.491Z,6.33
2022-08-22T06:42:26.044Z,6.00
2022-08-22T06:44:58.273Z,4.60
2022-08-22T06:47:28.378Z,4.13
2022-08-22T06:50:02.476Z,4.40
2022-08-22T06:52:35.973Z,3.47
2022-08-22T06:55:07.772Z,3.73
2022-08-22T06:57:38.276Z,3.60
2022-08-22T07:00:10.178Z,3.53
2022-08-22T07:02:43.162Z,3.37
2022-08-22T07:05:17.790Z,3.37
2022-08-22T07:07:46.052Z,2.93
2022-08-22T07:10:16.021Z,3.73
2022-08-22T07:12:47.213Z,3.47
2022-08-22T07:15:32.344Z,3.10
2022-08-22T07:18:04.280Z,3.53
2022-08-22T07:20:38.365Z,3.30
2022-08-22T07:23:09.741Z,3.33
2022-08-22T07:25:51.616Z,3.43
2022-08-22T07:28:31.790Z,3.70
2022-08-22T07:31:16.857Z,3.80
2022-08-22T07:33:49.688Z,3.90
2022-08-22T07:36:25.044Z,3.90
2022-08-22T07:39:05.278Z,4.07
2022-08-22T07:41:52.524Z,4.80
2022-08-22T07:44:23.680Z,4.47
2022-08-22T07:46:58.201Z,4.20
2022-08-22T07:49:30.584Z,3.67
2022-08-22T07:52:04.852Z,3.60
2022-08-22T07:54:40.853Z,3.93
2022-08-22T07:57:12.849Z,3.70
2022-08-22T07:59:46.933Z,4.20
2022-08-22T08:02:16.973Z,4.40
2022-08-22T08:04:45.145Z,3.50
2022-08-22T08:07:17.853Z,3.67
2022-08-22T08:09:50.812Z,3.43
2022-08-22T08:12:21.989Z,3.90
2022-08-22T08:14:56.609Z,3.40
2022-08-22T08:17:31.866Z,3.80
2022-08-22T08:20:04.519Z,3.50
2022-08-22T08:22:34.548Z,3.37
2022-08-22T08:25:03.497Z,2.70
2022-08-22T08:27:52.631Z,2.97
2022-08-22T08:30:24.901Z,3.27
2022-08-22T08:32:57.543Z,2.83
2022-08-22T08:36:02.810Z,3.37
2022-08-22T08:38:37.841Z,2.90
2022-08-22T08:41:29.711Z,3.40
2022-08-22T08:44:06.881Z,3.47
2022-08-22T08:46:59.935Z,3.10
2022-08-22T08:49:44.312Z,4.10
2022-08-22T08:52:40.538Z,3.37
2022-08-22T08:58:34.785Z,3.40
2022-08-22T09:01:16.814Z,3.77
2022-08-22T09:04:16.413Z,3.83
2022-08-22T09:07:16.577Z,3.87
2022-08-22T09:09:58.460Z,3.30
2022-08-22T09:12:56.210Z,3.50
2022-08-22T09:15:58.426Z,3.60
2022-08-22T09:19:00.780Z,3.63
2022-08-22T09:22:00.430Z,3.77
2022-08-22T09:25:06.073Z,3.13
2022-08-22T09:27:38.995Z,4.00
2022-08-22T09:30:11.940Z,3.23
2022-08-22T09:32:54.546Z,4.10
2022-08-22T09:35:34.973Z,3.90
2022-08-22T09:38:26.803Z,4.07
2022-08-22T09:41:04.865Z,3.77
2022-08-22T09:43:39.947Z,3.63
2022-08-22T09:46:19.627Z,3.83
2022-08-22T09:49:01.136Z,3.70
2022-08-22T09:51:38.702Z,4.00
2022-08-22T09:54:22.061Z,4.20
2022-08-22T09:56:59.026Z,3.40
2022-08-22T09:59:42.690Z,3.40
2022-08-22T10:02:29.499Z,3.60
2022-08-22T10:05:04.184Z,3.63
2022-08-22T10:07:52.800Z,4.10
2022-08-22T10:10:35.812Z,3.80
2022-08-22T10:13:11.648Z,3.33
2022-08-22T10:15:50.338Z,4.03
2022-08-22T10:18:33.369Z,3.60
2022-08-22T10:21:12.077Z,3.57
2022-08-22T10:23:46.401Z,3.70
2022-08-22T10:26:29.177Z,4.20
2022-08-22T10:29:08.212Z,4.07
2022-08-22T10:31:58.936Z,3.63
2022-08-22T10:34:31.777Z,4.00
2022-08-22T10:37:11.717Z,3.63
2022-08-22T10:39:46.519Z,3.43
2022-08-22T10:42:27.887Z,3.53
2022-08-22T10:45:16.009Z,3.30
2022-08-22T10:48:31.561Z,3.40
2022-08-22T10:51:37.097Z,3.57
2022-08-22T10:54:26.857Z,3.50
2022-08-22T10:57:09.600Z,3.80
2022-08-22T10:59:45.733Z,3.80
2022-08-22T11:02:34.593Z,3.40
2022-08-22T11:05:24.463Z,3.70
2022-08-22T11:08:17.361Z,3.20
2022-08-22T11:11:02.339Z,3.80
2022-08-22T11:13:43.326Z,3.80
2022-08-22T11:16:23.881Z,3.50
2022-08-22T11:19:16.035Z,4.37
2022-08-22T11:22:02.061Z,3.67
2022-08-22T11:25:11.365Z,3.53
2022-08-22T11:27:54.661Z,3.40
2022-08-22T11:30:31.820Z,3.20
2022-08-22T11:33:17.994Z,3.47
2022-08-22T11:35:55.978Z,3.87
2022-08-22T11:38:32.715Z,4.00
2022-08-22T11:41:05.701Z,3.37
2022-08-22T11:43:46.788Z,4.20
2022-08-22T11:46:19.998Z,3.93
2022-08-22T11:49:06.233Z,3.27
2022-08-22T11:52:04.709Z,4.33
2022-08-22T11:54:51.921Z,4.00
2022-08-22T11:57:30.529Z,3.90
2022-08-22T12:00:15.095Z,3.40
2022-08-22T12:02:58.528Z,3.33
2022-08-22T12:05:33.536Z,3.30
2022-08-22T12:08:08.365Z,3.43
2022-08-22T12:10:44.225Z,4.20
2022-08-22T12:13:20.447Z,3.87
2022-08-22T12:16:15.566Z,3.80
2022-08-22T12:18:52.977Z,4.23
2022-08-22T12:22:05.022Z,4.57
2022-08-22T12:24:46.542Z,4.30
2022-08-22T12:27:28.781Z,3.77
2022-08-22T12:30:12.870Z,4.20
2022-08-22T12:33:20.761Z,4.33
2022-08-22T12:36:18.165Z,3.63
2022-08-22T12:39:01.494Z,3.37
2022-08-22T12:42:00.023Z,3.83
2022-08-22T12:44:42.345Z,3.83
2022-08-22T12:47:23.272Z,4.10
2022-08-22T12:50:12.307Z,4.23
2022-08-22T12:53:10.064Z,4.07
2022-08-22T12:55:50.715Z,3.87
2022-08-22T12:58:33.896Z,4.33
2022-08-22T13:01:05.464Z,4.17
2022-08-22T13:03:37.976Z,3.90
2022-08-22T13:06:27.165Z,3.97
2022-08-22T13:08:56.352Z,4.00
2022-08-22T13:11:24.510Z,3.40
2022-08-22T13:13:57.269Z,3.67
2022-08-22T13:16:27.335Z,4.03
2022-08-22T13:18:58.238Z,3.50
2022-08-22T13:21:31.552Z,3.57
2022-08-22T13:24:10.786Z,4.60
2022-08-22T13:26:49.170Z,3.70
2022-08-22T13:29:39.667Z,3.80
2022-08-22T13:32:17.341Z,4.27
2022-08-22T13:34:49.119Z,4.43
2022-08-22T13:37:24.562Z,3.70
2022-08-22T13:40:01.822Z,4.30
2022-08-22T13:42:33.360Z,4.10
2022-08-22T13:45:05.709Z,4.10
2022-08-22T13:47:39.295Z,4.00
2022-08-22T13:50:14.017Z,4.20
2022-08-22T13:52:52.588Z,4.50
2022-08-22T13:55:30.687Z,4.17
2022-08-22T13:58:07.604Z,4.30
2022-08-22T14:01:10.238Z,4.40
2022-08-22T14:03:45.458Z,4.73
2022-08-22T14:06:35.313Z,3.67
2022-08-22T14:09:15.193Z,5.30
2022-08-22T14:11:49.872Z,4.17
2022-08-22T14:14:26.415Z,3.87
2022-08-22T14:16:56.680Z,4.40
2022-08-22T14:19:29.782Z,4.30
2022-08-22T14:22:00.493Z,4.87
2022-08-22T14:24:31.921Z,4.27
2022-08-22T14:27:05.342Z,3.70
2022-08-22T14:29:41.823Z,4.27
2022-08-22T14:32:32.554Z,4.30
2022-08-22T14:35:10.673Z,4.37
2022-08-22T14:37:49.552Z,4.03
2022-08-22T14:40:22.576Z,4.33
2022-08-22T14:42:56.729Z,4.30
2022-08-22T14:45:28.829Z,3.30
2022-08-22T14:48:31.698Z,4.27
2022-08-22T14:51:00.929Z,3.90
2022-08-22T14:53:34.918Z,4.33
2022-08-22T14:56:07.228Z,3.93
2022-08-22T14:58:46.675Z,4.13
2022-08-22T15:01:17.285Z,4.17
2022-08-22T15:03:51.988Z,4.60
2022-08-22T15:06:35.061Z,4.23
2022-08-22T15:09:07.791Z,4.33
2022-08-22T15:11:37.639Z,4.27
2022-08-22T15:14:22.885Z,4.80
2022-08-22T15:16:55.281Z,3.73
2022-08-22T15:19:27.239Z,4.13
2022-08-22T15:22:13.487Z,4.17
2022-08-22T15:24:44.467Z,4.00
2022-08-22T15:27:12.860Z,3.57
2022-08-22T15:29:51.601Z,3.27
2022-08-22T15:32:22.145Z,4.20
2022-08-22T15:34:52.462Z,3.77
2022-08-22T15:37:32.919Z,3.40
2022-08-22T15:40:08.111Z,3.50
2022-08-22T15:42:40.989Z,3.70
2022-08-22T15:45:22.313Z,3.80
2022-08-22T15:47:53.073Z,3.33
2022-08-22T15:50:32.157Z,3.93
2022-08-22T15:53:20.487Z,3.70
2022-08-22T15:56:25.546Z,3.90
2022-08-22T15:59:30.402Z,3.63
2022-08-22T16:02:28.768Z,4.00
2022-08-22T16:05:19.328Z,3.80
2022-08-22T16:07:50.578Z,3.30
2022-08-22T16:10:32.533Z,3.53
2022-08-22T16:13:33.553Z,3.70
2022-08-22T16:16:05.280Z,3.20
2022-08-22T16:19:16.026Z,3.40
2022-08-22T16:22:06.117Z,3.77
2022-08-22T16:24:55.997Z,4.10
2022-08-22T16:27:26.905Z,4.07
2022-08-22T16:30:06.491Z,4.00
2022-08-22T16:32:34.922Z,4.00
2022-08-22T16:35:02.677Z,3.87
2022-08-22T16:37:50.164Z,3.70
2022-08-22T16:40:26.117Z,3.87
2022-08-22T16:43:13.896Z,3.90
2022-08-22T16:45:45.338Z,3.97
2022-08-22T16:48:33.523Z,4.50
2022-08-22T16:51:22.463Z,4.10
2022-08-22T16:54:11.177Z,3.60
2022-08-22T16:57:09.383Z,3.60
2022-08-22T16:59:59.800Z,3.87
2022-08-22T17:02:49.145Z,3.87
2022-08-22T17:05:29.851Z,4.03
2022-08-22T17:08:12.034Z,3.87
2022-08-22T17:10:52.396Z,3.97
2022-08-22T17:13:32.792Z,3.93
2022-08-22T17:16:24.690Z,4.40
2022-08-22T17:19:09.117Z,4.53
2022-08-22T17:21:50.608Z,4.90
2022-08-22T17:24:34.110Z,4.40
2022-08-22T17:27:08.925Z,4.33
2022-08-22T17:29:52.023Z,4.90
2022-08-22T17:32:27.648Z,4.47
2022-08-22T17:35:13.443Z,4.50
2022-08-22T17:37:47.610Z,4.23
2022-08-22T17:40:30.437Z,4.00
2022-08-22T17:43:10.976Z,4.03
2022-08-22T17:45:50.173Z,4.30
2022-08-22T17:48:21.835Z,5.13
2022-08-22T17:50:54.749Z,4.40
2022-08-22T17:53:37.377Z,4.90
2022-08-22T17:56:15.479Z,4.50
2022-08-22T17:58:49.720Z,4.53
2022-08-22T18:01:38.174Z,4.67
2022-08-22T18:04:10.275Z,4.80
2022-08-22T18:06:47.993Z,4.80
2022-08-22T18:09:32.265Z,4.90
2022-08-22T18:12:05.657Z,4.90
2022-08-22T18:14:45.746Z,4.87
2022-08-22T18:17:18.813Z,5.00
2022-08-22T18:19:57.335Z,5.40
2022-08-22T18:22:31.538Z,5.17
2022-08-22T18:25:04.455Z,5.03
2022-08-22T18:27:38.093Z,5.20
2022-08-22T18:30:17.619Z,5.00
2022-08-22T18:32:55.482Z,5.73
2022-08-22T18:35:28.930Z,5.20
2022-08-22T18:38:03.420Z,5.50
2022-08-22T18:40:53.244Z,5.00
2022-08-22T18:43:26.982Z,4.83
2022-08-22T18:46:03.560Z,4.60
2022-08-22T18:48:54.307Z,6.00
2022-08-22T18:51:30.653Z,5.10
2022-08-22T18:54:19.282Z,4.40
2022-08-22T18:56:51.509Z,4.97
2022-08-22T18:59:41.436Z,6.40
2022-08-22T19:02:41.270Z,5.87
2022-08-22T19:05:33.393Z,4.77
2022-08-22T19:08:24.833Z,4.50
2022-08-22T19:11:06.809Z,5.50
2022-08-22T19:13:58.400Z,4.97
2022-08-22T19:16:54.582Z,4.70
2022-08-22T19:19:53.865Z,5.80
2022-08-22T19:22:25.151Z,5.10
2022-08-22T19:25:17.968Z,5.50
2022-08-22T19:28:07.161Z,5.13
2022-08-22T19:30:44.062Z,4.80
2022-08-22T19:33:13.067Z,4.47
2022-08-22T19:36:07.177Z,4.77
2022-08-22T19:39:00.873Z,5.20
2022-08-22T19:41:52.443Z,4.70
2022-08-22T19:44:35.132Z,4.87
2022-08-22T19:47:09.298Z,5.30
2022-08-22T19:49:39.710Z,4.87
2022-08-22T19:52:22.068Z,5.13
2022-08-22T19:54:57.780Z,5.10
2022-08-22T19:57:40.070Z,5.50
2022-08-22T20:00:12.953Z,5.73
2022-08-22T20:02:56.513Z,4.83
2022-08-22T20:05:30.877Z,5.80
2022-08-22T20:08:11.708Z,4.70
2022-08-22T20:10:51.593Z,5.20
2022-08-22T20:13:23.284Z,4.93
2022-08-22T20:16:16.250Z,4.10
2022-08-22T20:19:07.821Z,4.60
2022-08-22T20:21:44.321Z,4.23
2022-08-22T20:24:17.376Z,5.17
2022-08-22T20:27:12.335Z,4.87
2022-08-22T20:29:39.645Z,4.67
2022-08-22T20:32:07.868Z,4.70
2022-08-22T20:34:40.374Z,5.23
2022-08-22T20:37:29.530Z,4.80
2022-08-22T20:40:25.762Z,5.33
2022-08-22T20:43:10.950Z,4.20
2022-08-22T20:45:50.107Z,5.23
2022-08-22T20:48:17.717Z,4.63
2022-08-22T20:50:45.312Z,4.07
2022-08-22T20:53:17.512Z,5.40
2022-08-22T20:55:54.982Z,6.20
2022-08-22T20:58:25.391Z,5.10
2022-08-22T21:01:00.061Z,4.73
2022-08-22T21:03:36.215Z,4.60
2022-08-22T21:06:11.960Z,5.03
2022-08-22T21:08:40.594Z,4.77
2022-08-22T21:11:27.957Z,5.23
2022-08-22T21:13:55.841Z,4.90
2022-08-22T21:16:31.667Z,5.00
2022-08-22T21:19:01.531Z,5.27
2022-08-22T21:21:30.978Z,5.30
2022-08-22T21:24:01.865Z,4.97
2022-08-22T21:26:33.795Z,4.87
2022-08-22T21:29:06.296Z,5.13
2022-08-22T21:31:37.730Z,4.50
2022-08-22T21:34:05.782Z,4.93
2022-08-22T21:36:38.889Z,4.80
2022-08-22T21:39:13.588Z,5.80
2022-08-22T21:41:45.086Z,6.50
2022-08-22T21:44:25.933Z,4.97
2022-08-22T21:46:54.477Z,4.40
2022-08-22T21:49:25.346Z,5.13
2022-08-22T21:51:54.050Z,5.63
2022-08-22T21:54:33.143Z,5.83
2022-08-22T21:57:21.221Z,5.20
2022-08-22T21:59:59.649Z,5.40
2022-08-22T22:02:35.308Z,5.60
2022-08-22T22:05:09.837Z,5.50
2022-08-22T22:07:40.131Z,5.20
2022-08-22T22:10:10.558Z,6.10
2022-08-22T22:12:41.585Z,5.30
2022-08-22T22:15:12.037Z,5.80
2022-08-22T22:17:39.638Z,5.07
2022-08-22T22:20:08.868Z,5.70
2022-08-22T22:22:37.201Z,4.20
2022-08-22T22:25:41.124Z,5.27
2022-08-22T22:28:05.126Z,5.27
2022-08-22T22:30:32.712Z,5.70
2022-08-22T22:33:00.336Z,6.33
2022-08-22T22:35:28.121Z,5.90
2022-08-22T22:37:56.267Z,5.90
2022-08-22T22:40:24.849Z,5.57
2022-08-22T22:42:52.476Z,5.80
2022-08-22T22:45:21.394Z,5.40
2022-08-22T22:47:48.988Z,5.07
2022-08-22T22:50:16.552Z,5.20
2022-08-22T22:52:44.188Z,5.50
2022-08-22T22:55:12.077Z,5.40
2022-08-22T22:57:57.794Z,6.30
2022-08-22T23:00:30.846Z,5.73
2022-08-22T23:02:59.419Z,5.43
2022-08-22T23:05:26.996Z,5.73
2022-08-22T23:07:54.570Z,5.20
2022-08-22T23:10:22.385Z,5.77
2022-08-22T23:12:50.011Z,6.37
2022-08-22T23:15:17.576Z,5.80
2022-08-22T23:17:46.845Z,5.80
2022-08-22T23:20:14.648Z,6.03
2022-08-22T23:22:42.864Z,6.23
2022-08-22T23:25:10.688Z,6.00
2022-08-22T23:27:38.468Z,5.67
2022-08-22T23:30:08.530Z,5.17
2022-08-22T23:32:36.721Z,5.60
2022-08-22T23:35:06.512Z,5.87
2022-08-22T23:37:34.409Z,5.13
2022-08-22T23:40:02.254Z,5.87
2022-08-22T23:42:30.073Z,5.47
2022-08-22T23:44:57.656Z,6.00
2022-08-22T23:47:25.337Z,6.40
2022-08-22T23:49:53.120Z,5.53
2022-08-22T23:52:22.100Z,5.60
2022-08-22T23:54:54.310Z,6.10
2022-08-22T23:57:27.463Z,5.80
2022-08-22T23:59:57.959Z,5.20
